Santa Paula, California
Current Conditions -  °F | °C
As of 6:55 PM on Saturday 22 Nov 2014 (Local Time) from KCMA Reporting Station
Clear Clear  
Wind Chill: 18°   Ceiling: Unl
Heat Index: 18°   Visibility: 10mi
Dew Point: 13°   Wind: 6mph
Humidity: 75%   Direction: 90°E
Pressure: 29.98"   Gusts: NA
Location:  34.35°N, 119.05°W
Report Text: KCMA 230255Z 09005KT 10SM CLR 18/13 A2998 RMK AO2 SLP162 T01780133 55004
Loading
Personal Weather Stations






























Interactive Weather Map New forecast layout! Learn more

10-Day Weather Forecast

Advertisements
Track Severe Weather on mobile